createdAt,value
2019-04-14T00:00:29.284Z,73.30
2019-04-14T00:02:59.791Z,73.60
2019-04-14T00:05:31.046Z,73.10
2019-04-14T00:07:58.475Z,73.40
2019-04-14T00:10:26.992Z,73.90
2019-04-14T00:12:55.682Z,74.20
2019-04-14T00:15:30.898Z,74.20
2019-04-14T00:17:54.610Z,74.60
2019-04-14T00:20:23.294Z,74.50
2019-04-14T00:22:51.744Z,74.70
2019-04-14T00:25:20.170Z,75.30
2019-04-14T00:27:49.924Z,74.90
2019-04-14T00:30:18.865Z,75.60
2019-04-14T00:32:49.069Z,75.40
2019-04-14T00:35:34.355Z,75.30
2019-04-14T00:38:04.486Z,75.50
2019-04-14T00:40:51.821Z,76.10
2019-04-14T00:43:22.100Z,76.50
2019-04-14T00:45:55.274Z,77.50
2019-04-14T00:48:24.649Z,77.30
2019-04-14T00:50:54.309Z,77.30
2019-04-14T00:53:22.920Z,78.50
2019-04-14T00:55:51.427Z,79.10
2019-04-14T00:58:19.890Z,78.80
2019-04-14T01:00:50.099Z,78.80
2019-04-14T01:03:19.865Z,78.80
2019-04-14T01:05:48.479Z,78.40
2019-04-14T01:08:17.005Z,78.30
2019-04-14T01:10:45.529Z,78.30
2019-04-14T01:13:14.200Z,77.90
2019-04-14T01:15:51.178Z,78.30
2019-04-14T01:18:12.976Z,78.10
2019-04-14T01:20:42.730Z,78.30
2019-04-14T01:23:11.309Z,77.90
2019-04-14T01:25:40.966Z,78.00
2019-04-14T01:28:09.597Z,79.00
2019-04-14T01:30:39.366Z,78.30
2019-04-14T01:33:07.990Z,78.80
2019-04-14T01:35:36.418Z,79.40
2019-04-14T01:38:05.903Z,79.60
2019-04-14T01:40:34.563Z,79.70
2019-04-14T01:43:03.857Z,80.00
2019-04-14T01:45:32.350Z,79.20
2019-04-14T01:48:01.699Z,80.00
2019-04-14T01:50:34.971Z,80.40
2019-04-14T01:53:07.593Z,80.70
2019-04-14T01:55:37.715Z,81.10
2019-04-14T01:58:16.530Z,81.70
2019-04-14T02:00:46.729Z,81.90
2019-04-14T02:03:15.342Z,82.00
2019-04-14T02:05:43.782Z,82.10
2019-04-14T02:08:13.413Z,81.80
2019-04-14T02:10:43.351Z,81.30
2019-04-14T02:13:11.999Z,81.70
2019-04-14T02:15:40.437Z,82.00
2019-04-14T02:18:09.946Z,81.60
2019-04-14T02:20:38.570Z,81.70
2019-04-14T02:23:08.143Z,81.00
2019-04-14T02:25:38.098Z,81.10
2019-04-14T02:28:06.919Z,80.80
2019-04-14T02:30:41.748Z,81.70
2019-04-14T02:33:40.887Z,82.00
2019-04-14T02:36:11.414Z,81.90
2019-04-14T02:41:07.358Z,81.90
2019-04-14T02:48:50.833Z,81.70
2019-04-14T02:51:06.234Z,82.20
2019-04-14T02:53:44.314Z,83.00
2019-04-14T02:56:08.160Z,82.90
2019-04-14T02:58:38.674Z,83.40
2019-04-14T03:01:09.875Z,83.80
2019-04-14T03:03:40.992Z,84.10
2019-04-14T03:11:01.202Z,84.40
2019-04-14T03:13:37.544Z,84.80
2019-04-14T03:16:02.430Z,85.30
2019-04-14T03:24:08.799Z,85.50
2019-04-14T03:26:41.903Z,85.20
2019-04-14T03:29:21.339Z,85.00
2019-04-14T03:39:27.343Z,86.20
2019-04-14T03:41:54.755Z,86.70
2019-04-14T03:47:02.949Z,87.20
2019-04-14T03:49:24.623Z,87.80
2019-04-14T03:51:55.838Z,89.00
2019-04-14T03:54:15.862Z,89.30
2019-04-14T03:56:47.129Z,90.10
2019-04-14T03:59:17.354Z,90.00
2019-04-14T04:01:47.760Z,89.90
2019-04-14T04:04:16.595Z,89.70
2019-04-14T04:06:46.296Z,89.60
2019-04-14T04:09:15.001Z,89.40
2019-04-14T04:11:43.615Z,88.80
2019-04-14T04:14:12.075Z,88.60
2019-04-14T04:16:59.477Z,88.50
2019-04-14T04:19:29.704Z,88.10
2019-04-14T04:22:02.483Z,87.90
2019-04-14T04:24:36.847Z,87.90
2019-04-14T04:27:11.090Z,87.40
2019-04-14T04:29:44.373Z,87.60
2019-04-14T04:32:20.747Z,87.60
2019-04-14T04:34:51.264Z,87.40
2019-04-14T04:37:24.365Z,87.00
2019-04-14T04:39:56.133Z,87.20
2019-04-14T04:42:24.838Z,87.60
2019-04-14T04:44:53.348Z,87.40
2019-04-14T04:47:23.032Z,87.60
2019-04-14T04:49:51.750Z,87.60
2019-04-14T04:52:21.233Z,87.10
2019-04-14T04:54:49.776Z,87.20
2019-04-14T04:57:18.232Z,87.00
2019-04-14T04:59:47.421Z,87.50
2019-04-14T05:02:15.967Z,87.30
2019-04-14T05:04:44.444Z,87.30
2019-04-14T05:07:12.969Z,87.10
2019-04-14T05:10:00.172Z,86.70
2019-04-14T05:12:33.079Z,87.00
2019-04-14T05:15:03.654Z,87.00
2019-04-14T05:17:40.952Z,87.00
2019-04-14T05:20:09.716Z,87.10
2019-04-14T05:22:38.153Z,86.90
2019-04-14T05:25:07.811Z,87.20
2019-04-14T05:27:36.588Z,87.70
2019-04-14T05:30:06.883Z,88.40
2019-04-14T05:32:35.405Z,88.40
2019-04-14T05:35:05.225Z,87.60
2019-04-14T05:37:33.902Z,87.40
2019-04-14T05:40:03.680Z,87.00
2019-04-14T05:42:32.377Z,87.30
2019-04-14T05:45:00.837Z,87.20
2019-04-14T05:47:30.440Z,86.90
2019-04-14T05:49:59.365Z,87.30
2019-04-14T05:52:28.019Z,87.30
2019-04-14T05:54:57.861Z,87.40
2019-04-14T05:57:26.443Z,87.50
2019-04-14T05:59:54.888Z,87.80
2019-04-14T06:02:24.426Z,87.40
2019-04-14T06:04:53.241Z,87.20
2019-04-14T06:07:21.767Z,87.00
2019-04-14T06:09:50.209Z,87.20
2019-04-14T06:12:18.663Z,87.40
2019-04-14T06:14:47.174Z,86.80
2019-04-14T06:17:15.662Z,87.10
2019-04-14T06:19:44.105Z,87.60
2019-04-14T06:22:33.386Z,87.40
2019-04-14T06:25:01.858Z,87.00
2019-04-14T06:27:30.375Z,86.60
2019-04-14T06:30:02.057Z,86.30
2019-04-14T06:32:38.114Z,85.80
2019-04-14T06:35:20.646Z,86.00
2019-04-14T06:37:50.735Z,86.00
2019-04-14T06:40:20.517Z,85.00
2019-04-14T06:42:48.970Z,85.50
2019-04-14T06:45:17.412Z,85.40
2019-04-14T06:47:45.838Z,85.60
2019-04-14T06:50:14.350Z,85.40
2019-04-14T06:52:42.886Z,85.10
2019-04-14T06:55:11.336Z,84.90
2019-04-14T06:57:39.778Z,85.50
2019-04-14T07:00:08.275Z,85.60
2019-04-14T07:02:36.702Z,84.50
2019-04-14T07:05:06.406Z,84.60
2019-04-14T07:07:34.886Z,84.20
2019-04-14T07:10:04.275Z,85.00
2019-04-14T07:12:32.703Z,84.10
2019-04-14T07:15:01.162Z,84.00
2019-04-14T07:17:29.662Z,84.00
2019-04-14T07:20:02.347Z,84.00
2019-04-14T07:22:28.243Z,83.30
2019-04-14T07:24:56.697Z,83.10
2019-04-14T07:27:25.250Z,82.50
2019-04-14T07:30:11.685Z,82.40
2019-04-14T07:32:57.893Z,83.00
2019-04-14T07:35:38.727Z,82.50
2019-04-14T07:38:11.767Z,82.40
2019-04-14T07:40:58.079Z,82.20
2019-04-14T07:43:43.291Z,82.20
2019-04-14T07:46:31.826Z,83.40
2019-04-14T07:49:18.507Z,82.10
2019-04-14T07:52:04.753Z,82.10
2019-04-14T07:54:46.899Z,82.40
2019-04-14T07:57:35.214Z,82.00
2019-04-14T08:00:07.841Z,81.20
2019-04-14T08:02:43.567Z,81.00
2019-04-14T08:05:13.665Z,79.80
2019-04-14T08:07:42.999Z,80.40
2019-04-14T08:10:11.909Z,79.60
2019-04-14T08:12:40.346Z,80.70
2019-04-14T08:15:09.205Z,80.50
2019-04-14T08:17:37.685Z,80.30
2019-04-14T08:20:09.227Z,80.20
2019-04-14T08:22:37.730Z,80.30
2019-04-14T08:25:06.639Z,79.50
2019-04-14T08:27:35.083Z,79.50
2019-04-14T08:30:04.957Z,79.10
2019-04-14T08:32:34.079Z,78.60
2019-04-14T08:35:02.512Z,79.00
2019-04-14T08:37:30.963Z,79.60
2019-04-14T08:39:59.397Z,79.10
2019-04-14T08:42:46.017Z,78.50
2019-04-14T08:45:16.250Z,78.00
2019-04-14T08:47:54.897Z,78.90
2019-04-14T08:50:25.051Z,78.20
2019-04-14T08:52:55.204Z,78.20
2019-04-14T08:55:27.747Z,78.20
2019-04-14T09:00:52.036Z,77.50
2019-04-14T09:03:28.087Z,76.60
2019-04-14T09:06:10.232Z,75.80
2019-04-14T09:08:46.189Z,76.20
2019-04-14T09:11:19.066Z,76.00
2019-04-14T09:13:47.489Z,75.30
2019-04-14T09:16:15.953Z,75.80
2019-04-14T09:18:44.437Z,75.40
2019-04-14T09:21:12.894Z,74.90
2019-04-14T09:23:41.333Z,75.10
2019-04-14T09:26:09.790Z,75.00
2019-04-14T09:28:38.237Z,74.50
2019-04-14T09:31:06.673Z,74.90
2019-04-14T09:33:35.111Z,74.60
2019-04-14T09:36:03.602Z,74.70
2019-04-14T09:38:32.037Z,75.00
2019-04-14T09:41:00.475Z,74.20
2019-04-14T09:43:28.930Z,73.40
2019-04-14T09:45:57.360Z,74.90
2019-04-14T09:48:25.822Z,74.80
2019-04-14T09:51:04.229Z,74.40
2019-04-14T09:53:24.417Z,75.10
2019-04-14T09:55:52.870Z,75.50
2019-04-14T09:58:21.306Z,75.80
2019-04-14T10:00:49.749Z,75.70
2019-04-14T10:03:19.526Z,76.00
2019-04-14T10:05:47.958Z,77.40
2019-04-14T10:08:16.469Z,77.40
2019-04-14T10:10:44.990Z,78.20
2019-04-14T10:13:13.527Z,79.40
2019-04-14T10:15:41.957Z,79.40
2019-04-14T10:18:10.415Z,78.70
2019-04-14T10:20:39.814Z,79.10
2019-04-14T10:23:08.248Z,78.00
2019-04-14T10:25:36.815Z,78.10
2019-04-14T10:28:05.262Z,78.20
2019-04-14T10:30:33.716Z,78.40
2019-04-14T10:33:02.220Z,78.80
2019-04-14T10:35:30.656Z,77.40
2019-04-14T10:37:59.082Z,77.80
2019-04-14T10:40:27.515Z,79.80
2019-04-14T10:42:56.035Z,79.50
2019-04-14T10:45:24.503Z,79.60
2019-04-14T10:47:53.022Z,79.10
2019-04-14T10:50:30.855Z,79.90
